AEE284 LGAV-LGKR
Flight info
| Callsign | AEE284 |
|---|---|
| Flight time | 0h 46m |
| Altitude | 30000 |
| Route | KOR UL53 PARNA |
| Aircraft | A320/M-SDE3FGHIRWY/LB1 |
Departure
| Time | 2026-05-07 12:53 |
|---|---|
| Airport | Athens Eleftherios Venizelos International Airport (LGAV) |
Arrival
| Time | 2026-05-07 13:39 |
|---|---|
| Airport | Corfu Ioannis Kapodistrias International Airport (LGKR) |
| Time | Latitude | Longitude | Altitude | Speed | Heading |
|---|---|---|---|---|---|
| 2026-05-07 12:37 | 37.94165 | 23.95059 | 300 ft | 0 kts | 37° |
| 2026-05-07 12:43 | 37.94162 | 23.95055 | 301 ft | 3 kts | 37° |
| 2026-05-07 12:44 | 37.94141 | 23.95035 | 302 ft | 4 kts | 37° |
| 2026-05-07 12:44 | 37.94124 | 23.95019 | 299 ft | 4 kts | 36° |
| 2026-05-07 12:44 | 37.94102 | 23.94998 | 300 ft | 4 kts | 44° |
| 2026-05-07 12:44 | 37.94088 | 23.94973 | 302 ft | 3 kts | 80° |
| 2026-05-07 12:45 | 37.94087 | 23.94969 | 300 ft | 0 kts | 82° |
| 2026-05-07 12:48 | 37.94087 | 23.94971 | 300 ft | 1 kts | 82° |
| 2026-05-07 12:49 | 37.94086 | 23.95013 | 302 ft | 11 kts | 104° |
| 2026-05-07 12:49 | 37.94033 | 23.95111 | 301 ft | 15 kts | 127° |
| 2026-05-07 12:49 | 37.93962 | 23.95230 | 303 ft | 19 kts | 125° |
| 2026-05-07 12:49 | 37.93876 | 23.95376 | 299 ft | 23 kts | 128° |
| 2026-05-07 12:50 | 37.93864 | 23.95488 | 299 ft | 7 kts | 36° |
| 2026-05-07 12:50 | 37.93934 | 23.95551 | 300 ft | 18 kts | 36° |
| 2026-05-07 12:50 | 37.94064 | 23.95674 | 297 ft | 28 kts | 37° |
| 2026-05-07 12:50 | 37.94224 | 23.95827 | 300 ft | 30 kts | 37° |
| 2026-05-07 12:51 | 37.94414 | 23.96005 | 299 ft | 40 kts | 37° |
| 2026-05-07 12:51 | 37.94601 | 23.96184 | 300 ft | 29 kts | 37° |
| 2026-05-07 12:51 | 37.94655 | 23.96289 | 298 ft | 8 kts | 130° |
| 2026-05-07 12:51 | 37.94589 | 23.96315 | 295 ft | 13 kts | 184° |
| 2026-05-07 12:52 | 37.94476 | 23.96309 | 290 ft | 13 kts | 182° |
| 2026-05-07 12:52 | 37.94412 | 23.96284 | 288 ft | 0 kts | 217° |
| 2026-05-07 12:52 | 37.94348 | 23.96223 | 287 ft | 42 kts | 217° |
| 2026-05-07 12:53 | 37.93912 | 23.95807 | 279 ft | 111 kts | 217° |
| 2026-05-07 12:53 | 37.93159 | 23.95095 | 363 ft | 152 kts | 217° |
| 2026-05-07 12:53 | 37.92284 | 23.94371 | 1088 ft | 149 kts | 207° |
| 2026-05-07 12:53 | 37.91374 | 23.93762 | 1848 ft | 147 kts | 205° |
| 2026-05-07 12:54 | 37.90437 | 23.93156 | 2384 ft | 160 kts | 207° |
| 2026-05-07 12:54 | 37.89381 | 23.92470 | 2749 ft | 182 kts | 208° |
| 2026-05-07 12:54 | 37.88184 | 23.91681 | 3116 ft | 207 kts | 208° |
| 2026-05-07 12:54 | 37.86837 | 23.90783 | 3562 ft | 230 kts | 208° |
| 2026-05-07 12:55 | 37.85390 | 23.89808 | 4401 ft | 239 kts | 208° |
| 2026-05-07 12:55 | 37.83933 | 23.88818 | 5396 ft | 243 kts | 209° |
| 2026-05-07 12:55 | 37.82424 | 23.87789 | 6354 ft | 249 kts | 209° |
| 2026-05-07 12:55 | 37.80852 | 23.86717 | 6820 ft | 264 kts | 209° |
| 2026-05-07 12:56 | 37.79198 | 23.85583 | 7506 ft | 274 kts | 209° |
| 2026-05-07 12:56 | 37.77502 | 23.84432 | 8425 ft | 279 kts | 210° |
| 2026-05-07 12:56 | 37.75773 | 23.83285 | 9340 ft | 283 kts | 209° |
| 2026-05-07 12:56 | 37.74010 | 23.82120 | 10184 ft | 290 kts | 209° |
| 2026-05-07 12:57 | 37.72138 | 23.80891 | 10528 ft | 314 kts | 209° |
| 2026-05-07 12:57 | 37.70134 | 23.79572 | 10892 ft | 334 kts | 209° |
| 2026-05-07 12:57 | 37.68044 | 23.78199 | 11565 ft | 341 kts | 209° |
| 2026-05-07 12:57 | 37.65952 | 23.76838 | 12331 ft | 345 kts | 209° |
| 2026-05-07 12:58 | 37.63796 | 23.75458 | 13103 ft | 349 kts | 209° |
| 2026-05-07 12:58 | 37.61610 | 23.74085 | 13870 ft | 353 kts | 210° |
| 2026-05-07 12:58 | 37.59390 | 23.72733 | 14571 ft | 356 kts | 209° |
| 2026-05-07 12:58 | 37.57152 | 23.71381 | 15275 ft | 358 kts | 209° |
| 2026-05-07 12:59 | 37.54903 | 23.70018 | 15975 ft | 360 kts | 209° |
| 2026-05-07 12:59 | 37.52641 | 23.68634 | 16671 ft | 361 kts | 211° |
| 2026-05-07 12:59 | 37.50618 | 23.66795 | 17341 ft | 358 kts | 228° |
| 2026-05-07 12:59 | 37.49178 | 23.64271 | 18030 ft | 356 kts | 246° |
| 2026-05-07 13:00 | 37.48619 | 23.62337 | 18469 ft | 356 kts | 257° |
| 2026-05-07 13:00 | 37.48444 | 23.59230 | 19060 ft | 359 kts | 275° |
| 2026-05-07 13:00 | 37.49076 | 23.56185 | 19662 ft | 364 kts | 293° |
| 2026-05-07 13:00 | 37.50473 | 23.53504 | 20265 ft | 370 kts | 308° |
| 2026-05-07 13:01 | 37.52147 | 23.51023 | 20878 ft | 372 kts | 308° |
| 2026-05-07 13:01 | 37.53831 | 23.48532 | 21476 ft | 375 kts | 308° |
| 2026-05-07 13:01 | 37.55524 | 23.46023 | 22072 ft | 377 kts | 308° |
| 2026-05-07 13:01 | 37.57229 | 23.43492 | 22629 ft | 379 kts | 308° |
| 2026-05-07 13:02 | 37.58942 | 23.40944 | 23204 ft | 381 kts | 308° |
| 2026-05-07 13:02 | 37.60664 | 23.38384 | 23780 ft | 384 kts | 309° |
| 2026-05-07 13:02 | 37.62391 | 23.35808 | 24268 ft | 385 kts | 308° |
| 2026-05-07 13:02 | 37.64119 | 23.33219 | 24752 ft | 387 kts | 308° |
| 2026-05-07 13:03 | 37.65878 | 23.30580 | 25249 ft | 389 kts | 308° |
| 2026-05-07 13:03 | 37.67603 | 23.27997 | 25694 ft | 391 kts | 308° |
| 2026-05-07 13:03 | 37.69358 | 23.25371 | 26159 ft | 392 kts | 308° |
| 2026-05-07 13:03 | 37.71120 | 23.22733 | 26619 ft | 394 kts | 308° |
| 2026-05-07 13:04 | 37.72889 | 23.20080 | 27071 ft | 395 kts | 307° |
| 2026-05-07 13:04 | 37.74661 | 23.17418 | 27532 ft | 397 kts | 307° |
| 2026-05-07 13:04 | 37.76440 | 23.14745 | 27994 ft | 398 kts | 307° |
| 2026-05-07 13:04 | 37.78227 | 23.12059 | 28459 ft | 400 kts | 307° |
| 2026-05-07 13:05 | 37.80019 | 23.09359 | 28905 ft | 401 kts | 307° |
| 2026-05-07 13:05 | 37.81815 | 23.06651 | 29361 ft | 402 kts | 307° |
| 2026-05-07 13:05 | 37.83618 | 23.03931 | 29815 ft | 404 kts | 307° |
| 2026-05-07 13:05 | 37.85428 | 23.01197 | 30080 ft | 405 kts | 307° |
| 2026-05-07 13:06 | 37.89039 | 22.95737 | 30122 ft | 404 kts | 307° |
| 2026-05-07 13:06 | 37.92645 | 22.90278 | 30119 ft | 404 kts | 307° |
| 2026-05-07 13:07 | 37.96253 | 22.84812 | 30130 ft | 404 kts | 307° |
| 2026-05-07 13:07 | 37.99804 | 22.79423 | 30120 ft | 398 kts | 307° |
| 2026-05-07 13:08 | 38.03344 | 22.74037 | 30116 ft | 397 kts | 307° |
| 2026-05-07 13:08 | 38.06861 | 22.68617 | 30117 ft | 396 kts | 304° |
| 2026-05-07 13:09 | 38.10067 | 22.62936 | 30118 ft | 395 kts | 301° |
| 2026-05-07 13:09 | 38.13121 | 22.57136 | 30116 ft | 395 kts | 301° |
| 2026-05-07 13:10 | 38.16202 | 22.51357 | 30117 ft | 395 kts | 302° |
| 2026-05-07 13:10 | 38.19312 | 22.45650 | 30123 ft | 395 kts | 302° |
| 2026-05-07 13:11 | 38.22438 | 22.39914 | 30118 ft | 394 kts | 301° |
| 2026-05-07 13:11 | 38.25550 | 22.34181 | 30118 ft | 393 kts | 301° |
| 2026-05-07 13:12 | 38.28657 | 22.28446 | 30122 ft | 394 kts | 301° |
| 2026-05-07 13:12 | 38.31758 | 22.22721 | 30114 ft | 390 kts | 302° |
| 2026-05-07 13:13 | 38.34834 | 22.17037 | 30116 ft | 389 kts | 302° |
| 2026-05-07 13:13 | 38.37893 | 22.11358 | 30123 ft | 388 kts | 301° |
| 2026-05-07 13:14 | 38.40949 | 22.05678 | 30117 ft | 388 kts | 301° |
| 2026-05-07 13:14 | 38.44005 | 21.99983 | 30122 ft | 389 kts | 301° |
| 2026-05-07 13:15 | 38.47056 | 21.94290 | 30119 ft | 388 kts | 301° |
| 2026-05-07 13:15 | 38.50107 | 21.88597 | 30119 ft | 388 kts | 301° |
| 2026-05-07 13:16 | 38.53148 | 21.82914 | 30122 ft | 388 kts | 301° |
| 2026-05-07 13:16 | 38.56192 | 21.77206 | 30112 ft | 390 kts | 300° |
| 2026-05-07 13:17 | 38.59252 | 21.71451 | 30114 ft | 392 kts | 300° |
| 2026-05-07 13:17 | 38.62291 | 21.65729 | 30111 ft | 392 kts | 300° |
| 2026-05-07 13:18 | 38.65348 | 21.59944 | 30109 ft | 392 kts | 299° |
| 2026-05-07 13:18 | 38.68146 | 21.53960 | 30114 ft | 390 kts | 296° |
| 2026-05-07 13:19 | 38.70780 | 21.47883 | 30114 ft | 389 kts | 296° |
| 2026-05-07 13:19 | 38.73430 | 21.41833 | 30110 ft | 390 kts | 296° |
| 2026-05-07 13:20 | 38.74763 | 21.38830 | 29600 ft | 383 kts | 296° |
| 2026-05-07 13:20 | 38.76085 | 21.35868 | 28170 ft | 383 kts | 297° |
| 2026-05-07 13:20 | 38.77383 | 21.32971 | 27714 ft | 365 kts | 297° |
| 2026-05-07 13:20 | 38.78611 | 21.30234 | 27459 ft | 355 kts | 297° |
| 2026-05-07 13:21 | 38.79829 | 21.27507 | 27010 ft | 351 kts | 297° |
| 2026-05-07 13:21 | 38.81035 | 21.24795 | 26551 ft | 349 kts | 297° |
| 2026-05-07 13:21 | 38.82231 | 21.22100 | 26102 ft | 346 kts | 297° |
| 2026-05-07 13:21 | 38.83417 | 21.19426 | 25665 ft | 344 kts | 297° |
| 2026-05-07 13:22 | 38.84594 | 21.16767 | 25236 ft | 342 kts | 297° |
| 2026-05-07 13:22 | 38.85760 | 21.14132 | 24821 ft | 338 kts | 297° |
| 2026-05-07 13:22 | 38.86918 | 21.11521 | 24405 ft | 335 kts | 297° |
| 2026-05-07 13:22 | 38.88068 | 21.08926 | 24012 ft | 333 kts | 297° |
| 2026-05-07 13:23 | 38.89208 | 21.06346 | 23606 ft | 331 kts | 297° |
| 2026-05-07 13:23 | 38.90340 | 21.03777 | 23174 ft | 330 kts | 297° |
| 2026-05-07 13:23 | 38.91467 | 21.01220 | 22783 ft | 328 kts | 297° |
| 2026-05-07 13:23 | 38.92591 | 20.98670 | 22390 ft | 327 kts | 297° |
| 2026-05-07 13:24 | 38.93710 | 20.96139 | 21985 ft | 325 kts | 297° |
| 2026-05-07 13:24 | 38.94813 | 20.93646 | 21592 ft | 324 kts | 296° |
| 2026-05-07 13:24 | 38.95919 | 20.91135 | 21172 ft | 322 kts | 296° |
| 2026-05-07 13:24 | 38.97017 | 20.88635 | 20767 ft | 320 kts | 296° |
| 2026-05-07 13:25 | 38.98108 | 20.86149 | 20345 ft | 319 kts | 296° |
| 2026-05-07 13:25 | 38.99194 | 20.83671 | 19915 ft | 318 kts | 296° |
| 2026-05-07 13:25 | 39.00275 | 20.81204 | 19488 ft | 316 kts | 296° |
| 2026-05-07 13:25 | 39.01353 | 20.78742 | 19052 ft | 315 kts | 295° |
| 2026-05-07 13:26 | 39.02428 | 20.76280 | 18607 ft | 315 kts | 295° |
| 2026-05-07 13:26 | 39.03499 | 20.73829 | 18129 ft | 315 kts | 295° |
| 2026-05-07 13:26 | 39.04568 | 20.71381 | 17672 ft | 313 kts | 295° |
| 2026-05-07 13:26 | 39.05631 | 20.68947 | 17228 ft | 311 kts | 295° |
| 2026-05-07 13:27 | 39.06692 | 20.66525 | 16776 ft | 310 kts | 295° |
| 2026-05-07 13:27 | 39.07750 | 20.64110 | 16345 ft | 309 kts | 295° |
| 2026-05-07 13:27 | 39.08802 | 20.61698 | 15884 ft | 309 kts | 295° |
| 2026-05-07 13:27 | 39.09852 | 20.59286 | 15444 ft | 308 kts | 295° |
| 2026-05-07 13:28 | 39.10899 | 20.56876 | 14996 ft | 308 kts | 295° |
| 2026-05-07 13:28 | 39.11945 | 20.54469 | 14560 ft | 308 kts | 295° |
| 2026-05-07 13:28 | 39.12990 | 20.52060 | 14113 ft | 308 kts | 295° |
| 2026-05-07 13:28 | 39.14038 | 20.49648 | 13636 ft | 309 kts | 295° |
| 2026-05-07 13:29 | 39.15088 | 20.47227 | 13108 ft | 310 kts | 295° |
| 2026-05-07 13:29 | 39.16142 | 20.44799 | 12650 ft | 310 kts | 294° |
| 2026-05-07 13:29 | 39.17192 | 20.42379 | 12195 ft | 310 kts | 294° |
| 2026-05-07 13:29 | 39.18243 | 20.39948 | 11740 ft | 310 kts | 294° |
| 2026-05-07 13:30 | 39.19290 | 20.37522 | 11425 ft | 306 kts | 294° |
| 2026-05-07 13:30 | 39.20310 | 20.35171 | 11301 ft | 295 kts | 294° |
| 2026-05-07 13:30 | 39.21293 | 20.32909 | 10828 ft | 287 kts | 294° |
| 2026-05-07 13:30 | 39.22261 | 20.30665 | 10310 ft | 283 kts | 294° |
| 2026-05-07 13:31 | 39.23225 | 20.28423 | 10208 ft | 289 kts | 294° |
| 2026-05-07 13:31 | 39.24201 | 20.26143 | 10098 ft | 291 kts | 294° |
| 2026-05-07 13:31 | 39.25170 | 20.23889 | 9924 ft | 280 kts | 294° |
| 2026-05-07 13:31 | 39.26118 | 20.21690 | 9177 ft | 282 kts | 294° |
| 2026-05-07 13:32 | 39.27073 | 20.19468 | 8490 ft | 283 kts | 295° |
| 2026-05-07 13:32 | 39.28029 | 20.17247 | 7847 ft | 283 kts | 295° |
| 2026-05-07 13:32 | 39.28970 | 20.15051 | 7217 ft | 283 kts | 295° |
| 2026-05-07 13:32 | 39.29925 | 20.12823 | 6584 ft | 283 kts | 296° |
| 2026-05-07 13:33 | 39.30879 | 20.10597 | 5908 ft | 284 kts | 296° |
| 2026-05-07 13:33 | 39.31833 | 20.08373 | 5265 ft | 278 kts | 297° |
| 2026-05-07 13:33 | 39.32743 | 20.06252 | 4643 ft | 263 kts | 297° |
| 2026-05-07 13:33 | 39.33595 | 20.04266 | 4328 ft | 240 kts | 297° |
| 2026-05-07 13:34 | 39.34366 | 20.02473 | 4291 ft | 216 kts | 297° |
| 2026-05-07 13:34 | 39.36104 | 19.99458 | 4207 ft | 210 kts | 322° |
| 2026-05-07 13:34 | 39.37353 | 19.98506 | 4123 ft | 209 kts | 339° |
| 2026-05-07 13:35 | 39.38744 | 19.98033 | 4035 ft | 206 kts | 356° |
| 2026-05-07 13:35 | 39.40167 | 19.97940 | 3943 ft | 205 kts | 0° |
| 2026-05-07 13:35 | 39.41590 | 19.97864 | 3850 ft | 204 kts | 0° |
| 2026-05-07 13:35 | 39.42996 | 19.97567 | 3693 ft | 207 kts | 346° |
| 2026-05-07 13:36 | 39.44350 | 19.97057 | 3351 ft | 198 kts | 346° |
| 2026-05-07 13:36 | 39.45636 | 19.96569 | 3072 ft | 187 kts | 346° |
| 2026-05-07 13:36 | 39.46869 | 19.96103 | 2781 ft | 183 kts | 346° |
| 2026-05-07 13:36 | 39.48085 | 19.95644 | 2511 ft | 181 kts | 346° |
| 2026-05-07 13:37 | 39.49276 | 19.95197 | 2251 ft | 180 kts | 346° |
| 2026-05-07 13:37 | 39.50473 | 19.94750 | 1989 ft | 178 kts | 346° |
| 2026-05-07 13:37 | 39.51660 | 19.94303 | 1725 ft | 177 kts | 345° |
| 2026-05-07 13:37 | 39.52847 | 19.93856 | 1457 ft | 177 kts | 345° |
| 2026-05-07 13:38 | 39.54026 | 19.93411 | 1216 ft | 170 kts | 344° |
| 2026-05-07 13:38 | 39.55101 | 19.93004 | 979 ft | 154 kts | 345° |
| 2026-05-07 13:38 | 39.56106 | 19.92613 | 736 ft | 148 kts | 342° |
| 2026-05-07 13:38 | 39.57066 | 19.92187 | 521 ft | 144 kts | 340° |
| 2026-05-07 13:39 | 39.58004 | 19.91807 | 320 ft | 142 kts | 346° |
| 2026-05-07 13:39 | 39.58967 | 19.91527 | 114 ft | 141 kts | 350° |
| 2026-05-07 13:39 | 39.59889 | 19.91293 | 23 ft | 121 kts | 348° |
| 2026-05-07 13:39 | 39.60429 | 19.91151 | 21 ft | 49 kts | 348° |
| 2026-05-07 13:40 | 39.60756 | 19.91068 | 19 ft | 47 kts | 349° |
| 2026-05-07 13:40 | 39.60992 | 19.91007 | 19 ft | 16 kts | 349° |
| 2026-05-07 13:40 | 39.61046 | 19.91068 | 19 ft | 8 kts | 54° |
| 2026-05-07 13:40 | 39.61039 | 19.91131 | 19 ft | 8 kts | 157° |
| 2026-05-07 13:41 | 39.60982 | 19.91142 | 19 ft | 7 kts | 168° |
| 2026-05-07 13:41 | 39.60922 | 19.91159 | 19 ft | 11 kts | 168° |
| 2026-05-07 13:41 | 39.60876 | 19.91171 | 18 ft | 2 kts | 168° |
| 2026-05-07 13:41 | 39.60863 | 19.91190 | 18 ft | 4 kts | 99° |
| 2026-05-07 13:42 | 39.60869 | 19.91242 | 19 ft | 8 kts | 79° |
| 2026-05-07 13:42 | 39.60878 | 19.91302 | 19 ft | 1 kts | 79° |
| 2026-05-07 13:42 | 39.60880 | 19.91313 | 19 ft | 0 kts | 79° |